createdAt,value
2018-12-14T15:56:58.608Z,53.13
2018-12-14T15:57:58.581Z,53.23
2018-12-14T15:58:58.573Z,53.23
2018-12-14T15:59:58.569Z,53.32
2018-12-14T16:00:58.549Z,53.03
2018-12-14T16:01:58.543Z,53.03
2018-12-14T16:02:58.536Z,53.23
2018-12-14T16:04:47.066Z,53.13
2018-12-14T16:05:47.054Z,53.32
2018-12-14T16:06:47.044Z,53.32
2018-12-14T16:07:47.032Z,53.32
2018-12-14T16:08:47.025Z,53.23
2018-12-14T16:09:47.014Z,53.13
2018-12-14T16:10:47.003Z,53.42
2018-12-14T16:11:47.007Z,53.32
2018-12-14T16:12:47.008Z,53.23
2018-12-14T16:13:46.984Z,53.16
2018-12-14T16:14:46.971Z,53.06
2018-12-14T16:15:46.988Z,52.65
2018-12-14T16:16:46.960Z,52.77
2018-12-14T16:17:46.961Z,52.68
2018-12-14T16:18:46.965Z,53.06
2018-12-14T16:19:46.942Z,53.16
2018-12-14T16:20:46.945Z,53.16
2018-12-14T16:21:46.921Z,53.25
2018-12-14T16:22:46.924Z,53.16
2018-12-14T16:23:46.925Z,53.35
2018-12-14T16:24:46.921Z,53.16
2018-12-14T16:25:46.900Z,53.06
2018-12-14T16:26:46.894Z,53.06
2018-12-14T16:27:48.734Z,53.06
2018-12-14T16:28:48.686Z,53.64
2018-12-14T16:29:51.837Z,53.64
2018-12-14T16:30:51.479Z,53.54
2018-12-14T16:31:51.735Z,53.35
2018-12-14T16:32:49.421Z,53.64
2018-12-14T16:33:49.415Z,53.74
2018-12-14T16:34:49.409Z,53.54
2018-12-14T16:35:49.400Z,53.92
2018-12-14T16:36:49.400Z,53.32
2018-12-14T16:37:49.446Z,53.25
2018-12-14T16:38:49.369Z,53.35
2018-12-14T16:39:49.362Z,53.45
2018-12-14T16:40:49.354Z,53.35
2018-12-14T16:41:49.382Z,53.32
2018-12-14T16:42:49.369Z,53.35
2018-12-14T16:43:49.337Z,53.16
2018-12-14T16:44:49.327Z,53.23
2018-12-14T16:45:49.323Z,53.32
2018-12-14T16:46:49.316Z,53.25
2018-12-14T16:47:49.310Z,53.32
2018-12-14T16:48:49.300Z,53.35
2018-12-14T16:49:49.289Z,53.16
2018-12-14T16:50:49.288Z,53.25
2018-12-14T16:51:49.299Z,53.35
2018-12-14T16:52:49.264Z,53.45
2018-12-14T16:53:49.264Z,53.16
2018-12-14T16:54:49.254Z,53.35
2018-12-14T16:55:49.248Z,53.45
2018-12-14T16:56:49.242Z,53.45
2018-12-14T16:57:49.827Z,53.45
2018-12-14T16:58:49.218Z,53.16
2018-12-14T16:59:49.214Z,53.35
2018-12-14T17:00:49.211Z,53.45
2018-12-14T17:01:49.224Z,53.92
2018-12-14T17:02:49.189Z,53.64
2018-12-14T17:03:49.196Z,53.64
2018-12-14T17:04:49.251Z,53.35
2018-12-14T17:05:49.207Z,53.54
2018-12-14T17:06:49.170Z,54.02
2018-12-14T17:07:49.157Z,54.02
2018-12-14T17:08:49.146Z,53.83
2018-12-14T17:09:49.149Z,54.02
2018-12-14T17:10:49.131Z,53.74
2018-12-14T17:11:49.118Z,53.74
2018-12-14T17:12:49.114Z,53.45
2018-12-14T17:13:49.112Z,53.70
2018-12-14T17:14:49.114Z,53.61
2018-12-14T17:15:49.088Z,53.80
2018-12-14T17:16:49.092Z,53.52
2018-12-14T17:17:49.089Z,53.42
2018-12-14T17:18:49.073Z,53.42
2018-12-14T17:19:49.068Z,53.61
2018-12-14T17:20:49.058Z,53.61
2018-12-14T17:21:49.058Z,53.74
2018-12-14T17:22:49.034Z,53.25
2018-12-14T17:23:49.028Z,53.13
2018-12-14T17:24:49.022Z,53.03
2018-12-14T17:25:49.028Z,53.16
2018-12-14T17:26:49.018Z,53.35
2018-12-14T17:27:49.008Z,53.35
2018-12-14T17:28:48.999Z,53.25
2018-12-14T17:29:48.988Z,53.92
2018-12-14T17:30:48.981Z,53.64
2018-12-14T17:31:48.984Z,53.74
2018-12-14T17:32:48.965Z,53.92
2018-12-14T17:33:48.956Z,54.12
2018-12-14T17:34:48.957Z,54.02
2018-12-14T17:35:48.944Z,54.31
2018-12-14T17:36:48.930Z,54.41
2018-12-14T17:37:48.937Z,54.38
2018-12-14T17:38:48.927Z,54.38
2018-12-14T17:39:48.913Z,54.41
2018-12-14T17:40:48.909Z,54.02
2018-12-14T17:41:48.894Z,54.41
2018-12-14T17:42:48.883Z,53.83
2018-12-14T17:43:48.875Z,54.12
2018-12-14T17:44:48.870Z,54.47
2018-12-14T17:45:48.870Z,54.41
2018-12-14T17:46:48.864Z,54.31
2018-12-14T17:47:48.847Z,54.12
2018-12-14T17:48:48.841Z,54.28
2018-12-14T17:49:48.841Z,54.38
2018-12-14T17:50:48.830Z,54.28
2018-12-14T17:51:48.822Z,54.38
2018-12-14T17:52:48.815Z,54.47
2018-12-14T17:53:48.802Z,54.38
2018-12-14T17:54:48.791Z,54.67
2018-12-14T17:55:48.791Z,53.90
2018-12-14T17:56:48.780Z,53.80
2018-12-14T17:57:48.779Z,54.12
2018-12-14T17:58:48.779Z,54.12
2018-12-14T17:59:48.761Z,54.02
2018-12-14T18:00:48.754Z,53.83
2018-12-14T18:01:48.740Z,53.74
2018-12-14T18:02:48.731Z,54.02
2018-12-14T18:03:48.737Z,54.00
2018-12-14T18:04:48.724Z,53.90
2018-12-14T18:05:48.709Z,53.70
2018-12-14T18:06:48.700Z,54.19
2018-12-14T18:07:48.695Z,53.90
2018-12-14T18:08:48.685Z,53.90
2018-12-14T18:09:48.696Z,54.09
2018-12-14T18:10:48.701Z,53.90
2018-12-14T18:11:48.671Z,53.90
2018-12-14T18:12:48.661Z,53.90
2018-12-14T18:13:48.687Z,54.28
2018-12-14T18:14:48.655Z,54.00
2018-12-14T18:15:48.634Z,54.09
2018-12-14T18:16:48.678Z,54.28
2018-12-14T18:17:48.631Z,54.28
2018-12-14T18:18:48.619Z,54.00
2018-12-14T18:19:48.602Z,54.09
2018-12-14T18:20:48.593Z,54.19
2018-12-14T18:21:48.593Z,54.19
2018-12-14T18:22:48.596Z,53.90
2018-12-14T18:23:48.581Z,54.09
2018-12-14T18:24:48.579Z,53.90
2018-12-14T18:25:48.560Z,53.90
2018-12-14T18:26:48.548Z,53.90
2018-12-14T18:27:48.544Z,53.80
2018-12-14T18:28:48.540Z,54.00
2018-12-14T18:29:48.545Z,54.09
2018-12-14T18:30:48.617Z,54.19
2018-12-14T18:31:48.514Z,54.09
2018-12-14T18:32:48.509Z,54.00
2018-12-14T18:33:48.497Z,54.19
2018-12-14T18:34:48.484Z,53.90
2018-12-14T18:35:48.484Z,53.90
2018-12-14T18:36:48.479Z,54.00
2018-12-14T18:37:48.468Z,53.90
2018-12-14T18:38:48.471Z,54.09
2018-12-14T18:39:48.447Z,54.28
2018-12-14T18:40:48.439Z,54.09
2018-12-14T18:41:48.436Z,54.47
2018-12-14T18:42:48.433Z,54.47
2018-12-14T18:43:48.426Z,54.28
2018-12-14T18:44:48.413Z,54.38
2018-12-14T18:45:53.211Z,54.38
2018-12-14T18:46:48.391Z,54.67
2018-12-14T18:47:48.385Z,54.28
2018-12-14T18:48:48.380Z,54.47
2018-12-14T18:49:48.376Z,54.38
2018-12-14T18:50:48.368Z,54.57
2018-12-14T18:51:48.357Z,54.77
2018-12-14T18:52:48.355Z,54.77
2018-12-14T18:53:48.345Z,54.57
2018-12-14T18:54:48.344Z,55.15
2018-12-14T18:55:48.330Z,54.77
2018-12-14T18:56:48.322Z,55.24
2018-12-14T18:57:48.311Z,55.05
2018-12-14T18:58:48.326Z,54.96
2018-12-14T18:59:48.297Z,54.86
2018-12-14T19:00:48.310Z,55.05
2018-12-14T19:01:48.300Z,54.67
2018-12-14T19:02:48.283Z,54.67
2018-12-14T19:03:48.269Z,54.64
2018-12-14T19:04:48.259Z,54.77
2018-12-14T19:05:48.252Z,54.77
2018-12-14T19:06:48.235Z,55.15
2018-12-14T19:07:48.237Z,54.77
2018-12-14T19:08:48.230Z,54.47
2018-12-14T19:09:48.219Z,54.86
2018-12-14T19:10:48.204Z,54.77
2018-12-14T19:11:48.198Z,54.67
2018-12-14T19:12:48.191Z,54.74
2018-12-14T19:13:48.188Z,54.67
2018-12-14T19:14:48.184Z,54.64
2018-12-14T19:15:48.173Z,54.55
2018-12-14T19:16:48.173Z,54.83
2018-12-14T19:17:48.152Z,54.74
2018-12-14T19:18:48.145Z,55.12
2018-12-14T19:19:48.135Z,54.45
2018-12-14T19:20:48.127Z,54.74
2018-12-14T19:21:48.127Z,55.12
2018-12-14T19:22:48.122Z,55.22
2018-12-14T19:23:48.105Z,54.67
2018-12-14T19:24:48.097Z,54.55
2018-12-14T19:25:48.098Z,54.96
2018-12-14T19:26:48.086Z,54.67
2018-12-14T19:27:48.078Z,54.74
2018-12-14T19:28:48.122Z,54.77
2018-12-14T19:29:48.076Z,54.57
2018-12-14T19:30:48.055Z,54.64
2018-12-14T19:31:48.045Z,54.67
2018-12-14T19:32:48.034Z,54.28
2018-12-14T19:33:48.035Z,54.57
2018-12-14T19:34:48.024Z,54.67
2018-12-14T19:35:48.022Z,54.77
2018-12-14T19:36:48.021Z,54.55
2018-12-14T19:37:48.009Z,54.38
2018-12-14T19:38:47.985Z,54.38
2018-12-14T19:39:47.983Z,54.47
2018-12-14T19:40:47.982Z,54.47
2018-12-14T19:41:47.971Z,54.67
2018-12-14T19:42:47.954Z,54.67
2018-12-14T19:43:47.949Z,54.57
2018-12-14T19:44:47.945Z,54.38
2018-12-14T19:45:47.937Z,54.19
2018-12-14T19:46:47.930Z,54.28
2018-12-14T19:47:47.926Z,54.47
2018-12-14T19:48:47.915Z,54.47
2018-12-14T19:49:47.902Z,54.28
2018-12-14T19:50:47.893Z,54.19
2018-12-14T19:51:47.895Z,54.28
2018-12-14T19:52:47.881Z,54.28
2018-12-14T19:53:47.876Z,54.38
2018-12-14T19:54:47.865Z,54.28
2018-12-14T19:55:47.851Z,54.38
2018-12-14T19:56:47.845Z,54.28
2018-12-14T19:57:47.844Z,54.38
2018-12-14T19:58:47.841Z,54.47
2018-12-14T19:59:47.839Z,54.09
2018-12-14T20:00:47.816Z,53.80
2018-12-14T20:01:47.812Z,53.90
2018-12-14T20:02:47.795Z,53.90
2018-12-14T20:03:47.790Z,54.00
2018-12-14T20:04:47.788Z,53.90
2018-12-14T20:05:47.788Z,54.00
2018-12-14T20:06:47.779Z,53.90
2018-12-14T20:07:47.764Z,54.19
2018-12-14T20:08:47.758Z,53.90
2018-12-14T20:09:47.740Z,54.19
2018-12-14T20:10:48.601Z,54.09
2018-12-14T20:11:47.743Z,54.47
2018-12-14T20:12:47.735Z,54.57
2018-12-14T20:13:47.717Z,54.47
2018-12-14T20:14:47.701Z,54.67
2018-12-14T20:15:47.697Z,54.28
2018-12-14T20:16:47.687Z,53.80
2018-12-14T20:17:47.684Z,54.19
2018-12-14T20:18:47.689Z,54.00
2018-12-14T20:19:47.677Z,54.00
2018-12-14T20:20:47.664Z,53.90
2018-12-14T20:21:47.645Z,53.90
2018-12-14T20:22:47.637Z,54.00
2018-12-14T20:23:47.629Z,53.80
2018-12-14T20:24:47.623Z,53.90
2018-12-14T20:25:47.620Z,54.47
2018-12-14T20:26:47.616Z,54.47
2018-12-14T20:27:47.598Z,54.47
2018-12-14T20:28:47.591Z,54.38
2018-12-14T20:29:47.593Z,54.47
2018-12-14T20:30:47.593Z,54.28
2018-12-14T20:31:47.575Z,54.47
2018-12-14T20:32:47.563Z,54.28
2018-12-14T20:33:47.595Z,54.47
2018-12-14T20:34:47.542Z,54.28
2018-12-14T20:35:47.545Z,54.19
2018-12-14T20:36:47.537Z,54.86
2018-12-14T20:37:47.525Z,54.57
2018-12-14T20:38:47.512Z,54.57
2018-12-14T20:39:47.505Z,55.15
2018-12-14T20:40:47.498Z,55.15
2018-12-14T20:41:47.497Z,54.77
2018-12-14T20:42:47.486Z,55.05
2018-12-14T20:43:47.542Z,55.05
2018-12-14T20:44:47.498Z,55.24
2018-12-14T20:45:47.465Z,55.05
2018-12-14T20:46:47.458Z,55.24
2018-12-14T20:47:47.468Z,54.96
2018-12-14T20:48:47.487Z,55.05
2018-12-14T20:49:47.427Z,55.15
2018-12-14T20:50:47.422Z,55.05
2018-12-14T20:51:47.414Z,55.05
2018-12-14T20:52:47.406Z,55.05
2018-12-14T20:53:47.414Z,55.15
2018-12-14T20:54:47.396Z,55.24
2018-12-14T20:55:47.402Z,55.53
2018-12-14T20:56:51.622Z,55.34
2018-12-14T20:57:47.374Z,55.53
2018-12-14T20:58:47.361Z,55.44
2018-12-14T20:59:47.355Z,55.34
2018-12-14T21:00:47.350Z,55.53
2018-12-14T21:01:47.344Z,55.44
2018-12-14T21:02:47.332Z,55.24
2018-12-14T21:03:47.327Z,54.38
2018-12-14T21:04:47.323Z,53.80
2018-12-14T21:05:47.315Z,53.80
2018-12-14T21:06:47.311Z,54.09
2018-12-14T21:07:47.297Z,53.90
2018-12-14T21:08:47.286Z,53.61
2018-12-14T21:09:47.279Z,53.70
2018-12-14T21:10:47.264Z,53.70
2018-12-14T21:11:47.261Z,53.80
2018-12-14T21:12:47.250Z,53.90
2018-12-14T21:13:47.249Z,53.90
2018-12-14T21:14:50.801Z,54.09
2018-12-14T21:15:47.226Z,53.90
2018-12-14T21:16:47.228Z,54.09
2018-12-14T21:17:47.257Z,53.90
2018-12-14T21:18:47.214Z,54.00
2018-12-14T21:19:47.205Z,54.09
2018-12-14T21:20:47.195Z,54.09
2018-12-14T21:21:47.184Z,53.90
2018-12-14T21:22:47.170Z,54.00
2018-12-14T21:23:47.164Z,54.19
2018-12-14T21:24:47.156Z,54.09
2018-12-14T21:25:47.156Z,54.28
2018-12-14T21:26:47.148Z,54.28
2018-12-14T21:27:47.139Z,54.28
2018-12-14T21:28:47.133Z,54.19
2018-12-14T21:29:47.118Z,54.28
2018-12-14T21:30:47.109Z,54.38
2018-12-14T21:31:47.107Z,54.19
2018-12-14T21:32:47.102Z,54.19
2018-12-14T21:33:47.093Z,54.19
2018-12-14T21:34:47.085Z,54.47
2018-12-14T21:35:47.069Z,54.47
2018-12-14T21:36:47.073Z,54.28
2018-12-14T21:37:47.062Z,54.57
2018-12-14T21:38:47.052Z,54.57
2018-12-14T21:39:47.043Z,54.47
2018-12-14T21:40:47.061Z,54.38
2018-12-14T21:41:47.026Z,54.57
2018-12-14T21:42:47.021Z,54.47
2018-12-14T21:43:47.008Z,54.57
2018-12-14T21:44:47.000Z,54.57
2018-12-14T21:45:46.999Z,54.47
2018-12-14T21:46:46.993Z,54.86
2018-12-14T21:47:46.978Z,54.86
2018-12-14T21:48:46.967Z,54.38
2018-12-14T21:49:46.972Z,54.28
2018-12-14T21:50:46.962Z,54.47
2018-12-14T21:51:46.950Z,54.77
2018-12-14T21:52:46.946Z,54.77
2018-12-14T21:53:46.932Z,54.57
2018-12-14T21:54:46.919Z,55.15
2018-12-14T21:55:46.988Z,55.24
2018-12-14T21:56:46.902Z,54.96
2018-12-14T21:57:46.902Z,55.15
2018-12-14T21:58:46.910Z,55.15
2018-12-14T21:59:46.891Z,55.15
2018-12-14T22:00:46.883Z,55.24
2018-12-14T22:01:46.871Z,54.96
2018-12-14T22:02:46.864Z,54.77
2018-12-14T22:03:46.862Z,54.96
2018-12-14T22:04:46.845Z,55.05
2018-12-14T22:05:46.849Z,55.05
2018-12-14T22:06:46.832Z,55.15
2018-12-14T22:07:46.823Z,55.05
2018-12-14T22:08:46.817Z,55.15
2018-12-14T22:09:48.302Z,54.96
2018-12-14T22:10:46.797Z,55.15
2018-12-14T22:11:46.791Z,55.05
2018-12-14T22:12:46.787Z,55.15
2018-12-14T22:13:46.774Z,55.05
2018-12-14T22:14:46.771Z,55.15
2018-12-14T22:15:46.758Z,55.15
2018-12-14T22:16:46.748Z,54.96
2018-12-14T22:17:46.744Z,55.05
2018-12-14T22:18:46.735Z,55.15
2018-12-14T22:19:46.722Z,55.34
2018-12-14T22:20:46.719Z,55.44
2018-12-14T22:21:46.725Z,55.44
2018-12-14T22:22:46.724Z,55.32
2018-12-14T22:23:46.694Z,55.32
2018-12-14T22:24:46.694Z,55.44
2018-12-14T22:25:46.673Z,55.73
2018-12-14T22:26:46.693Z,55.41
2018-12-14T22:27:46.685Z,55.89
2018-12-14T22:28:46.662Z,56.18
2018-12-14T22:29:46.648Z,55.89
2018-12-14T22:30:46.644Z,55.60
2018-12-14T22:31:46.638Z,55.99
2018-12-14T22:32:46.621Z,55.69
2018-12-14T22:33:46.620Z,55.99
2018-12-14T22:34:46.598Z,56.08
2018-12-14T22:35:46.600Z,56.08
2018-12-14T22:36:46.646Z,55.89
2018-12-14T22:37:46.583Z,56.18
2018-12-14T22:38:46.574Z,56.18
2018-12-14T22:39:46.560Z,56.66
2018-12-14T22:40:46.553Z,56.76
2018-12-14T22:41:46.560Z,56.76
2018-12-14T22:42:46.542Z,57.04
2018-12-14T22:43:46.532Z,56.95
2018-12-14T22:44:46.527Z,56.95
2018-12-14T22:45:46.507Z,57.52
2018-12-14T22:46:46.503Z,57.81
2018-12-14T22:47:46.495Z,57.52
2018-12-14T22:48:46.487Z,57.62
2018-12-14T22:49:46.482Z,57.90
2018-12-14T22:50:46.476Z,57.71
2018-12-14T22:51:46.462Z,57.90
2018-12-14T22:52:46.453Z,58.20
2018-12-14T22:53:46.458Z,58.45
2018-12-14T22:54:46.445Z,58.26
2018-12-14T22:55:46.436Z,58.45
2018-12-14T22:56:46.426Z,58.55
2018-12-14T22:57:46.421Z,58.55
2018-12-14T22:58:46.398Z,58.64
2018-12-14T22:59:46.391Z,58.74
2018-12-14T23:00:46.385Z,58.55
2018-12-14T23:01:46.398Z,58.45
2018-12-14T23:02:46.378Z,58.36
2018-12-14T23:03:46.372Z,59.22
2018-12-14T23:04:46.359Z,59.22
2018-12-14T23:05:46.350Z,58.94
2018-12-14T23:06:46.335Z,58.94
2018-12-14T23:07:46.330Z,58.84
2018-12-14T23:08:46.334Z,58.84
2018-12-14T23:09:46.324Z,59.03
2018-12-14T23:10:46.301Z,59.12
2018-12-14T23:11:46.292Z,59.12
2018-12-14T23:12:46.283Z,59.41
2018-12-14T23:13:46.287Z,59.12
2018-12-14T23:14:46.284Z,59.22
2018-12-14T23:15:46.276Z,59.22
2018-12-14T23:16:52.129Z,59.41
2018-12-14T23:17:46.240Z,59.32
2018-12-14T23:18:46.236Z,59.41
2018-12-14T23:19:46.220Z,59.22
2018-12-14T23:20:46.217Z,59.41
2018-12-14T23:21:46.212Z,59.70
2018-12-14T23:22:46.209Z,59.99
2018-12-14T23:23:46.194Z,59.32
2018-12-14T23:24:46.188Z,59.99
2018-12-14T23:25:46.185Z,59.80
2018-12-14T23:26:46.174Z,59.70
2018-12-14T23:27:46.160Z,59.61
2018-12-14T23:28:46.225Z,59.41
2018-12-14T23:29:46.137Z,59.51
2018-12-14T23:30:46.130Z,59.67
2018-12-14T23:31:46.128Z,59.70
2018-12-14T23:32:46.110Z,59.99
2018-12-14T23:33:46.117Z,59.99
2018-12-14T23:34:46.098Z,60.28
2018-12-14T23:35:46.092Z,59.86
2018-12-14T23:36:46.080Z,59.89
2018-12-14T23:37:46.065Z,60.15
2018-12-14T23:38:46.068Z,60.35
2018-12-14T23:39:46.061Z,59.96
2018-12-14T23:40:46.046Z,59.89
2018-12-14T23:41:46.034Z,59.99
2018-12-14T23:42:46.032Z,60.25
2018-12-14T23:43:46.017Z,60.15
2018-12-14T23:44:46.013Z,60.35
2018-12-14T23:45:46.004Z,60.44
2018-12-14T23:46:45.996Z,60.05
2018-12-14T23:47:45.987Z,60.25
2018-12-14T23:48:45.987Z,60.05
2018-12-14T23:49:45.970Z,60.15
2018-12-14T23:50:45.959Z,60.38
2018-12-14T23:51:45.950Z,59.70
2018-12-14T23:52:45.942Z,58.84
2018-12-14T23:53:45.935Z,58.94
2018-12-14T23:54:45.928Z,58.94
2018-12-14T23:55:45.917Z,59.12
2018-12-14T23:56:45.918Z,58.64
2018-12-14T23:57:45.932Z,58.74
2018-12-14T23:58:45.892Z,58.74
2018-12-14T23:59:45.887Z,58.64
